createdAt,value
2022-09-01T00:01:44.819Z,23.01
2022-09-01T00:04:16.101Z,23.02
2022-09-01T00:06:43.815Z,23.02
2022-09-01T00:09:14.461Z,23.01
2022-09-01T00:11:43.066Z,23.01
2022-09-01T00:14:24.811Z,23.01
2022-09-01T00:17:01.959Z,23.01
2022-09-01T00:19:29.716Z,23.01
2022-09-01T00:21:57.161Z,23.01
2022-09-01T00:24:26.249Z,23.01
2022-09-01T00:26:53.865Z,23.00
2022-09-01T00:29:20.520Z,23.00
2022-09-01T00:31:47.314Z,23.01
2022-09-01T00:34:14.607Z,22.99
2022-09-01T00:36:41.206Z,23.01
2022-09-01T00:39:09.037Z,23.02
2022-09-01T00:41:39.028Z,23.00
2022-09-01T00:44:12.161Z,23.01
2022-09-01T00:46:49.959Z,23.00
2022-09-01T00:49:35.321Z,22.99
2022-09-01T00:52:11.368Z,22.99
2022-09-01T00:54:43.548Z,22.98
2022-09-01T00:57:12.836Z,22.99
2022-09-01T00:59:46.098Z,22.99
2022-09-01T01:02:13.142Z,22.99
2022-09-01T01:04:41.042Z,22.99
2022-09-01T01:07:08.997Z,22.98
2022-09-01T01:09:41.696Z,22.99
2022-09-01T01:12:13.758Z,22.98
2022-09-01T01:14:41.757Z,22.98
2022-09-01T01:17:12.636Z,22.98
2022-09-01T01:20:04.326Z,22.98
2022-09-01T01:23:02.476Z,22.98
2022-09-01T01:25:30.156Z,22.98
2022-09-01T01:28:12.049Z,22.98
2022-09-01T01:30:41.224Z,22.98
2022-09-01T01:33:07.946Z,22.98
2022-09-01T01:35:35.475Z,22.97
2022-09-01T01:38:02.616Z,22.97
2022-09-01T01:40:30.169Z,22.97
2022-09-01T01:42:57.295Z,22.97
2022-09-01T01:45:25.299Z,22.98
2022-09-01T01:47:53.493Z,22.98
2022-09-01T01:50:35.597Z,22.97
2022-09-01T01:53:11.546Z,22.97
2022-09-01T01:55:40.187Z,22.97
2022-09-01T01:58:08.138Z,22.97
2022-09-01T02:00:35.125Z,22.97
2022-09-01T02:03:01.743Z,22.97
2022-09-01T02:05:32.523Z,22.97
2022-09-01T02:08:11.223Z,22.96
2022-09-01T02:10:44.139Z,22.97
2022-09-01T02:13:16.403Z,22.97
2022-09-01T02:15:49.390Z,22.97
2022-09-01T02:18:27.933Z,22.96
2022-09-01T02:20:55.392Z,22.97
2022-09-01T02:23:25.745Z,22.97
2022-09-01T02:28:45.816Z,22.96
2022-09-01T02:31:12.680Z,22.96
2022-09-01T02:33:44.140Z,22.97
2022-09-01T02:36:14.253Z,22.96
2022-09-01T02:38:46.076Z,22.95
2022-09-01T02:41:14.473Z,22.95
2022-09-01T02:43:44.508Z,22.96
2022-09-01T02:46:11.884Z,22.95
2022-09-01T02:48:41.639Z,22.95
2022-09-01T02:51:11.394Z,22.96
2022-09-01T02:53:39.405Z,22.96
2022-09-01T02:56:12.689Z,22.95
2022-09-01T02:58:45.723Z,22.94
2022-09-01T03:01:20.519Z,22.95
2022-09-01T03:03:50.971Z,22.95
2022-09-01T03:06:19.844Z,22.94
2022-09-01T03:08:47.492Z,22.95
2022-09-01T03:11:14.158Z,22.94
2022-09-01T03:13:42.022Z,22.94
2022-09-01T03:16:10.499Z,22.95
2022-09-01T03:18:38.112Z,22.94
2022-09-01T03:21:08.337Z,22.94
2022-09-01T03:23:38.120Z,22.95
2022-09-01T03:26:05.139Z,22.95
2022-09-01T03:28:32.071Z,22.95
2022-09-01T03:30:59.320Z,22.95
2022-09-01T03:33:26.970Z,22.95
2022-09-01T03:35:54.799Z,22.95
2022-09-01T03:38:22.123Z,22.95
2022-09-01T03:40:53.965Z,22.94
2022-09-01T03:43:24.914Z,22.94
2022-09-01T03:45:51.572Z,22.93
2022-09-01T03:48:18.548Z,22.94
2022-09-01T03:50:46.352Z,22.93
2022-09-01T03:53:22.823Z,22.93
2022-09-01T03:55:50.239Z,22.93
2022-09-01T03:58:21.760Z,22.93
2022-09-01T04:00:55.385Z,22.93
2022-09-01T04:03:29.145Z,22.93
2022-09-01T04:05:59.467Z,22.93
2022-09-01T04:08:32.429Z,22.93
2022-09-01T04:11:05.129Z,22.93
2022-09-01T04:13:37.592Z,22.94
2022-09-01T04:16:31.199Z,22.93
2022-09-01T04:18:57.908Z,22.92
2022-09-01T04:21:24.445Z,22.93
2022-09-01T04:23:51.029Z,22.92
2022-09-01T04:26:23.958Z,22.92
2022-09-01T04:28:50.980Z,22.92
2022-09-01T04:31:20.989Z,22.92
2022-09-01T04:33:50.156Z,22.93
2022-09-01T04:36:21.120Z,22.92
2022-09-01T04:38:49.348Z,22.93
2022-09-01T04:41:17.870Z,22.92
2022-09-01T04:43:47.386Z,22.92
2022-09-01T04:46:15.462Z,22.92
2022-09-01T04:48:46.028Z,22.92
2022-09-01T04:51:15.423Z,22.92
2022-09-01T04:53:48.856Z,22.92
2022-09-01T04:56:21.531Z,22.92
2022-09-01T04:58:48.135Z,22.92
2022-09-01T05:01:21.815Z,22.91
2022-09-01T05:04:03.895Z,22.91
2022-09-01T05:06:33.929Z,22.91
2022-09-01T05:09:00.584Z,22.91
2022-09-01T05:11:27.814Z,22.92
2022-09-01T05:13:57.649Z,22.92
2022-09-01T05:16:25.820Z,22.91
2022-09-01T05:18:54.236Z,22.91
2022-09-01T05:21:24.649Z,22.91
2022-09-01T05:23:52.012Z,22.92
2022-09-01T05:26:22.091Z,22.91
2022-09-01T05:28:50.704Z,22.91
2022-09-01T05:31:20.044Z,22.92
2022-09-01T05:33:48.447Z,22.91
2022-09-01T05:36:18.090Z,22.91
2022-09-01T05:38:45.455Z,22.91
2022-09-01T05:41:17.428Z,22.91
2022-09-01T05:43:55.097Z,22.90
2022-09-01T05:46:28.209Z,22.90
2022-09-01T05:48:56.221Z,22.91
2022-09-01T05:51:44.003Z,22.91
2022-09-01T05:54:12.494Z,22.91
2022-09-01T05:56:44.043Z,22.89
2022-09-01T05:59:27.763Z,22.89
2022-09-01T06:01:55.238Z,22.90
2022-09-01T06:04:22.976Z,22.89
2022-09-01T06:07:06.782Z,22.90
2022-09-01T06:09:38.603Z,22.89
2022-09-01T06:12:06.738Z,22.90
2022-09-01T06:14:33.663Z,22.89
2022-09-01T06:17:01.008Z,22.89
2022-09-01T06:19:28.582Z,22.89
2022-09-01T06:21:55.692Z,22.89
2022-09-01T06:24:22.257Z,22.89
2022-09-01T06:26:48.783Z,22.89
2022-09-01T06:29:15.739Z,22.90
2022-09-01T06:31:43.467Z,22.89
2022-09-01T06:34:18.128Z,22.90
2022-09-01T06:36:45.859Z,22.90
2022-09-01T06:39:19.797Z,22.89
2022-09-01T06:41:49.489Z,22.89
2022-09-01T06:44:22.378Z,22.89
2022-09-01T06:46:51.703Z,22.89
2022-09-01T06:49:23.686Z,22.90
2022-09-01T06:51:52.816Z,22.92
2022-09-01T06:54:21.076Z,22.94
2022-09-01T06:56:51.938Z,22.95
2022-09-01T06:59:21.055Z,22.88
2022-09-01T07:01:49.235Z,22.77
2022-09-01T07:04:20.189Z,22.56
2022-09-01T07:07:00.465Z,22.48
2022-09-01T07:09:47.947Z,22.46
2022-09-01T07:12:27.911Z,22.47
2022-09-01T07:17:49.106Z,22.57
2022-09-01T07:20:24.742Z,22.59
2022-09-01T07:23:08.393Z,22.63
2022-09-01T07:28:36.053Z,22.68
2022-09-01T07:33:55.713Z,22.71
2022-09-01T07:45:27.145Z,22.66
2022-09-01T07:47:54.793Z,22.66
2022-09-01T07:51:34.187Z,22.65
2022-09-01T07:53:12.500Z,22.65
2022-09-01T07:55:44.004Z,22.67
2022-09-01T07:58:11.834Z,22.68
2022-09-01T08:00:40.094Z,22.70
2022-09-01T08:03:06.836Z,22.70
2022-09-01T08:05:33.899Z,22.73
2022-09-01T08:08:01.236Z,22.74
2022-09-01T08:10:28.236Z,22.75
2022-09-01T08:12:57.839Z,22.76
2022-09-01T08:16:06.345Z,22.76
2022-09-01T08:18:14.566Z,22.76
2022-09-01T08:20:45.605Z,22.76
2022-09-01T08:23:15.705Z,22.74
2022-09-01T08:25:44.138Z,22.71
2022-09-01T08:28:12.151Z,22.70
2022-09-01T08:30:40.390Z,22.69
2022-09-01T08:33:11.164Z,22.68
2022-09-01T08:35:42.531Z,22.69
2022-09-01T08:38:09.905Z,22.68
2022-09-01T08:40:37.444Z,22.68
2022-09-01T08:43:19.120Z,22.70
2022-09-01T08:45:56.182Z,22.69
2022-09-01T08:51:47.147Z,22.69
2022-09-01T08:54:29.989Z,22.68
2022-09-01T08:57:05.191Z,22.66
2022-09-01T08:59:31.835Z,22.65
2022-09-01T09:02:12.089Z,22.64
2022-09-01T09:04:52.019Z,22.63
2022-09-01T09:07:33.039Z,22.61
2022-09-01T09:10:10.718Z,22.61
2022-09-01T09:13:08.251Z,22.57
2022-09-01T09:15:47.453Z,22.58
2022-09-01T09:18:38.920Z,22.56
2022-09-01T09:21:22.302Z,22.56
2022-09-01T09:23:55.901Z,22.55
2022-09-01T09:26:22.605Z,22.53
2022-09-01T09:33:53.981Z,22.52
2022-09-01T09:36:25.516Z,22.54
2022-09-01T09:39:12.898Z,22.50
2022-09-01T09:41:41.338Z,22.49
2022-09-01T09:44:11.566Z,22.50
2022-09-01T09:46:43.644Z,22.49
2022-09-01T09:49:34.589Z,22.49
2022-09-01T09:52:09.783Z,22.48
2022-09-01T09:54:39.243Z,22.49
2022-09-01T09:57:08.791Z,22.48
2022-09-01T10:00:03.307Z,22.46
2022-09-01T10:02:32.754Z,22.47
2022-09-01T10:05:02.501Z,22.48
2022-09-01T10:07:37.989Z,22.49
2022-09-01T10:10:27.069Z,22.51
2022-09-01T10:12:55.255Z,22.50
2022-09-01T10:15:25.508Z,22.48
2022-09-01T10:18:14.036Z,22.50
2022-09-01T10:20:48.990Z,22.50
2022-09-01T10:23:15.805Z,22.51
2022-09-01T10:25:43.447Z,22.51
2022-09-01T10:28:20.885Z,22.52
2022-09-01T10:33:20.782Z,22.52
2022-09-01T10:35:51.986Z,22.51
2022-09-01T10:38:22.648Z,22.50
2022-09-01T10:41:07.347Z,22.49
2022-09-01T10:43:41.536Z,22.48
2022-09-01T10:46:39.063Z,22.47
2022-09-01T10:49:33.717Z,22.49
2022-09-01T10:52:07.545Z,22.48
2022-09-01T10:54:51.136Z,22.51
2022-09-01T10:57:27.053Z,22.52
2022-09-01T10:59:57.951Z,22.52
2022-09-01T11:02:27.623Z,22.52
2022-09-01T11:04:54.471Z,22.52
2022-09-01T11:07:50.065Z,22.53
2022-09-01T11:10:35.389Z,22.53
2022-09-01T11:13:20.217Z,22.53
2022-09-01T11:15:48.551Z,22.54
2022-09-01T11:20:46.996Z,22.55
2022-09-01T11:23:22.199Z,22.56
2022-09-01T11:26:19.043Z,22.58
2022-09-01T11:28:39.102Z,22.59
2022-09-01T11:31:06.144Z,22.61
2022-09-01T11:33:52.866Z,22.63
2022-09-01T11:36:35.944Z,22.65
2022-09-01T11:39:26.773Z,22.67
2022-09-01T11:42:00.762Z,22.69
2022-09-01T11:44:51.883Z,22.69
2022-09-01T11:47:27.190Z,22.71
2022-09-01T11:50:04.784Z,22.72
2022-09-01T11:52:36.635Z,22.74
2022-09-01T11:55:05.669Z,22.74
2022-09-01T11:57:37.789Z,22.75
2022-09-01T12:00:25.159Z,22.75
2022-09-01T12:02:54.871Z,22.76
2022-09-01T12:05:34.726Z,22.77
2022-09-01T12:08:24.114Z,22.79
2022-09-01T12:10:51.458Z,22.79
2022-09-01T12:13:22.719Z,22.80
2022-09-01T12:16:17.350Z,22.81
2022-09-01T12:18:51.371Z,22.81
2022-09-01T12:21:25.361Z,22.80
2022-09-01T12:23:52.673Z,22.81
2022-09-01T12:26:20.871Z,22.83
2022-09-01T12:28:49.754Z,22.83
2022-09-01T12:31:22.031Z,22.84
2022-09-01T12:33:49.888Z,22.84
2022-09-01T12:36:22.195Z,22.85
2022-09-01T12:38:49.408Z,22.84
2022-09-01T12:41:36.403Z,22.85
2022-09-01T12:44:30.000Z,22.85
2022-09-01T12:47:18.134Z,22.84
2022-09-01T12:49:50.490Z,22.83
2022-09-01T12:52:19.941Z,22.83
2022-09-01T12:54:49.559Z,22.83
2022-09-01T12:57:51.315Z,22.86
2022-09-01T13:00:24.190Z,22.86
2022-09-01T13:02:53.212Z,22.86
2022-09-01T13:05:42.497Z,22.87
2022-09-01T13:08:13.354Z,22.88
2022-09-01T13:10:46.487Z,22.89
2022-09-01T13:13:15.214Z,22.89
2022-09-01T13:15:45.378Z,22.88
2022-09-01T13:18:12.199Z,22.89
2022-09-01T13:20:38.764Z,22.88
2022-09-01T13:23:05.499Z,22.88
2022-09-01T13:25:32.044Z,22.89
2022-09-01T13:28:00.416Z,22.89
2022-09-01T13:30:28.529Z,22.89
2022-09-01T13:35:42.692Z,22.90
2022-09-01T13:38:09.817Z,22.91
2022-09-01T13:40:36.468Z,22.92
2022-09-01T13:43:04.707Z,22.91
2022-09-01T13:45:31.990Z,22.92
2022-09-01T13:53:36.481Z,22.93
2022-09-01T13:56:03.440Z,22.94
2022-09-01T13:58:30.077Z,22.93
2022-09-01T14:00:59.944Z,22.94
2022-09-01T14:03:26.719Z,22.93
2022-09-01T14:05:53.890Z,22.95
2022-09-01T14:08:22.791Z,22.95
2022-09-01T14:10:52.122Z,22.96
2022-09-01T14:13:24.128Z,22.96
2022-09-01T14:15:53.344Z,22.95
2022-09-01T14:18:21.942Z,22.93
2022-09-01T14:20:51.042Z,22.89
2022-09-01T14:23:18.858Z,22.86
2022-09-01T14:25:48.356Z,22.83
2022-09-01T14:28:16.413Z,22.82
2022-09-01T14:30:46.794Z,22.82
2022-09-01T14:33:13.638Z,22.83
2022-09-01T14:35:44.054Z,22.81
2022-09-01T14:38:11.746Z,22.83
2022-09-01T14:40:40.563Z,22.81
2022-09-01T14:43:14.251Z,22.81
2022-09-01T14:45:44.751Z,22.81
2022-09-01T14:48:11.782Z,22.80
2022-09-01T14:50:42.469Z,22.79
2022-09-01T14:53:09.245Z,22.78
2022-09-01T14:55:36.244Z,22.79
2022-09-01T14:58:03.234Z,22.78
2022-09-01T15:00:31.507Z,22.78
2022-09-01T15:02:58.391Z,22.78
2022-09-01T15:05:25.438Z,22.79
2022-09-01T15:07:52.594Z,22.78
2022-09-01T15:10:25.311Z,22.79
2022-09-01T15:12:57.394Z,22.80
2022-09-01T15:15:25.572Z,22.80
2022-09-01T15:17:53.147Z,22.79
2022-09-01T15:20:38.174Z,22.79
2022-09-01T15:23:05.366Z,22.79
2022-09-01T15:25:31.916Z,22.78
2022-09-01T15:27:58.487Z,22.78
2022-09-01T15:30:25.320Z,22.77
2022-09-01T15:32:54.047Z,22.77
2022-09-01T15:35:21.590Z,22.79
2022-09-01T15:37:49.937Z,22.78
2022-09-01T15:40:17.400Z,22.78
2022-09-01T15:42:44.387Z,22.78
2022-09-01T15:45:14.935Z,22.78
2022-09-01T15:47:45.653Z,22.78
2022-09-01T15:50:21.611Z,22.78
2022-09-01T15:52:55.230Z,22.79
2022-09-01T15:55:26.191Z,22.78
2022-09-01T15:57:55.027Z,22.79
2022-09-01T16:00:24.755Z,22.78
2022-09-01T16:02:54.284Z,22.79
2022-09-01T16:05:20.951Z,22.78
2022-09-01T16:07:47.683Z,22.79
2022-09-01T16:10:14.634Z,22.79
2022-09-01T16:12:44.149Z,22.78
2022-09-01T16:15:14.432Z,22.78
2022-09-01T16:18:26.129Z,22.79
2022-09-01T16:21:25.394Z,22.78
2022-09-01T16:23:53.157Z,22.79
2022-09-01T16:26:23.143Z,22.81
2022-09-01T16:28:52.831Z,22.82
2022-09-01T16:31:28.518Z,22.84
2022-09-01T16:33:57.172Z,22.87
2022-09-01T16:36:26.379Z,22.88
2022-09-01T16:39:06.767Z,22.89
2022-09-01T16:41:48.256Z,22.90
2022-09-01T16:44:17.352Z,22.92
2022-09-01T16:46:54.143Z,22.92
2022-09-01T16:49:42.291Z,22.93
2022-09-01T16:52:13.060Z,22.94
2022-09-01T16:55:05.539Z,22.95
2022-09-01T16:58:01.211Z,22.96
2022-09-01T17:00:38.217Z,22.96
2022-09-01T17:03:17.082Z,22.97
2022-09-01T17:05:43.963Z,22.98
2022-09-01T17:08:32.502Z,22.98
2022-09-01T17:11:07.762Z,22.99
2022-09-01T17:13:40.158Z,22.98
2022-09-01T17:16:22.811Z,22.99
2022-09-01T17:18:59.978Z,22.99
2022-09-01T17:21:38.114Z,22.99
2022-09-01T17:24:42.932Z,22.99
2022-09-01T17:27:33.980Z,22.97
2022-09-01T17:30:01.590Z,22.97
2022-09-01T17:32:49.749Z,22.94
2022-09-01T17:35:53.127Z,22.92
2022-09-01T17:38:48.137Z,22.91
2022-09-01T17:41:34.716Z,22.90
2022-09-01T17:44:07.151Z,22.90
2022-09-01T17:46:42.543Z,22.88
2022-09-01T17:49:17.220Z,22.90
2022-09-01T17:52:08.171Z,22.89
2022-09-01T17:54:49.166Z,22.91
2022-09-01T17:57:35.063Z,22.91
2022-09-01T18:00:23.004Z,22.93
2022-09-01T18:02:58.547Z,22.94
2022-09-01T18:05:26.584Z,22.93
2022-09-01T18:08:30.840Z,22.94
2022-09-01T18:11:02.343Z,22.95
2022-09-01T18:13:52.973Z,22.95
2022-09-01T18:16:25.808Z,22.94
2022-09-01T18:18:53.238Z,22.94
2022-09-01T18:21:36.542Z,22.95
2022-09-01T18:24:15.125Z,22.95
2022-09-01T18:26:46.335Z,22.96
2022-09-01T18:29:13.299Z,22.94
2022-09-01T18:32:03.888Z,22.95
2022-09-01T18:35:02.650Z,22.94
2022-09-01T18:37:58.197Z,22.93
2022-09-01T18:40:33.769Z,22.93
2022-09-01T18:43:14.089Z,22.91
2022-09-01T18:45:49.997Z,22.93
2022-09-01T18:48:23.599Z,22.92
2022-09-01T18:51:00.855Z,22.94
2022-09-01T18:53:41.643Z,22.93
2022-09-01T18:56:23.119Z,22.93
2022-09-01T18:59:15.706Z,22.93
2022-09-01T19:02:00.969Z,22.92
2022-09-01T19:04:52.300Z,22.92
2022-09-01T19:07:53.790Z,22.92
2022-09-01T19:10:49.857Z,22.91
2022-09-01T19:13:28.029Z,22.92
2022-09-01T19:16:13.861Z,22.93
2022-09-01T19:18:52.138Z,22.91
2022-09-01T19:21:21.402Z,22.91
2022-09-01T19:23:56.927Z,22.91
2022-09-01T19:26:25.331Z,22.91
2022-09-01T19:28:54.286Z,22.92
2022-09-01T19:31:26.871Z,22.92
2022-09-01T19:34:00.971Z,22.92
2022-09-01T19:36:43.633Z,22.92
2022-09-01T19:39:14.964Z,22.93
2022-09-01T19:42:03.545Z,22.92
2022-09-01T19:44:48.391Z,22.93
2022-09-01T19:47:26.956Z,22.92
2022-09-01T19:50:24.266Z,22.91
2022-09-01T19:53:04.876Z,22.90
2022-09-01T19:55:41.422Z,22.90
2022-09-01T19:58:35.363Z,22.90
2022-09-01T20:01:05.675Z,22.90
2022-09-01T20:03:57.130Z,22.90
2022-09-01T20:06:35.322Z,22.89
2022-09-01T20:09:12.554Z,22.90
2022-09-01T20:11:54.742Z,22.90
2022-09-01T20:14:52.381Z,22.89
2022-09-01T20:17:51.914Z,22.89
2022-09-01T20:20:38.699Z,22.88
2022-09-01T20:23:28.098Z,22.88
2022-09-01T20:26:13.234Z,22.87
2022-09-01T20:28:59.265Z,22.86
2022-09-01T20:31:32.220Z,22.86
2022-09-01T20:33:58.668Z,22.85
2022-09-01T20:36:29.474Z,22.84
2022-09-01T20:39:39.646Z,22.86
2022-09-01T20:42:15.627Z,22.85
2022-09-01T20:44:55.296Z,22.84
2022-09-01T20:47:27.946Z,22.84
2022-09-01T20:49:54.782Z,22.83
2022-09-01T20:52:40.276Z,22.85
2022-09-01T20:55:16.850Z,22.84
2022-09-01T20:58:01.706Z,22.84
2022-09-01T21:00:30.158Z,22.84
2022-09-01T21:03:12.153Z,22.83
2022-09-01T21:06:06.135Z,22.83
2022-09-01T21:08:38.335Z,22.83
2022-09-01T21:11:04.791Z,22.83
2022-09-01T21:13:53.001Z,22.83
2022-09-01T21:16:43.741Z,22.82
2022-09-01T21:19:36.500Z,22.81
2022-09-01T21:22:05.184Z,22.82
2022-09-01T21:24:32.256Z,22.82
2022-09-01T21:27:01.923Z,22.83
2022-09-01T21:29:46.916Z,22.83
2022-09-01T21:32:16.053Z,22.82
2022-09-01T21:34:44.164Z,22.82
2022-09-01T21:37:11.615Z,22.81
2022-09-01T21:39:38.170Z,22.81
2022-09-01T21:42:07.910Z,22.82
2022-09-01T21:44:35.278Z,22.81
2022-09-01T21:47:03.216Z,22.81
2022-09-01T21:49:29.791Z,22.82
2022-09-01T21:51:59.814Z,22.81
2022-09-01T21:54:26.393Z,22.81
2022-09-01T21:56:53.446Z,22.81
2022-09-01T21:59:20.476Z,22.81
2022-09-01T22:01:49.830Z,22.81
2022-09-01T22:04:18.254Z,22.82
2022-09-01T22:06:46.222Z,22.81
2022-09-01T22:09:21.255Z,22.81
2022-09-01T22:11:50.627Z,22.82
2022-09-01T22:14:19.353Z,22.80
2022-09-01T22:16:47.135Z,22.81
2022-09-01T22:19:13.909Z,22.81
2022-09-01T22:21:41.779Z,22.80
2022-09-01T22:24:08.980Z,22.80
2022-09-01T22:26:35.814Z,22.80
2022-09-01T22:29:06.059Z,22.80
2022-09-01T22:31:35.056Z,22.80
2022-09-01T22:34:01.772Z,22.79
2022-09-01T22:36:40.409Z,22.80
2022-09-01T22:39:09.248Z,22.79
2022-09-01T22:41:38.033Z,22.80
2022-09-01T22:44:05.092Z,22.80
2022-09-01T22:46:34.359Z,22.79
2022-09-01T22:49:01.270Z,22.79
2022-09-01T22:51:28.649Z,22.79
2022-09-01T22:53:55.873Z,22.79
2022-09-01T22:56:26.195Z,22.79
2022-09-01T22:58:54.753Z,22.79
2022-09-01T23:01:24.523Z,22.79
2022-09-01T23:03:52.090Z,22.78
2022-09-01T23:06:28.002Z,22.79
2022-09-01T23:08:56.189Z,22.79
2022-09-01T23:11:23.109Z,22.78
2022-09-01T23:13:49.780Z,22.79
2022-09-01T23:16:16.803Z,22.78
2022-09-01T23:18:45.652Z,22.79
2022-09-01T23:21:14.448Z,22.79
2022-09-01T23:23:41.500Z,22.79
2022-09-01T23:26:10.764Z,22.78
2022-09-01T23:28:38.529Z,22.79
2022-09-01T23:31:10.999Z,22.78
2022-09-01T23:33:37.909Z,22.78
2022-09-01T23:36:10.613Z,22.78
2022-09-01T23:38:38.001Z,22.78
2022-09-01T23:41:08.904Z,22.78
2022-09-01T23:43:35.892Z,22.78
2022-09-01T23:46:02.796Z,22.78
2022-09-01T23:48:30.108Z,22.78
2022-09-01T23:50:57.893Z,22.78
2022-09-01T23:53:31.929Z,22.78
2022-09-01T23:56:02.157Z,22.78
2022-09-01T23:58:30.606Z,22.79
